Data for 04/26/2013

Time Sea-Level Adjusted Pressure Absolute Pressure Temperature Relative Humidity Dew Point   
(mb) (inHg) (mb) (inHg) (C) (F) (%) (C) (F)
00:05 1020 30.12 849 25.07 7.7 45.9 34 -7.2 19.1
00:10 1020 30.12 849 25.07 7.9 46.1 34 -7.2 19.1
00:15 1020 30.12 849 25.07 8 46.4 34 -7.1 19.3
00:20 1020 30.12 849 25.07 8 46.4 34 -7 19.3
00:25 1020 30.12 849 25.07 7.9 46.1 34 -6.9 19.5
00:30 1020 30.12 849 25.07 7.5 45.5 36 -6.6 20.1
00:35 1020 30.12 849 25.07 7 44.7 37 -6.7 20
00:40 1020 30.12 849 25.07 6.7 44.1 38 -6.6 20.1
00:45 1020 30.12 849 25.07 6.7 44.1 37 -6.8 19.7
00:50 1020 30.12 849 25.07 6.8 44.2 38 -6.7 20
00:55 1020 30.12 849 25.07 6.6 43.8 39 -6.4 20.5
01:00 1020 30.12 849 25.07 6.4 43.5 39 -6.6 20.1
01:05 1020 30.12 849 25.07 6.6 43.8 39 -6.4 20.5
01:10 1020 30.12 849 25.07 6.6 43.8 40 -6.1 21
01:15 1020 30.12 849 25.07 6.5 43.7 40 -6.3 20.7
01:20 1020 30.12 849 25.07 6.6 43.8 39 -6.3 20.7
01:25 1020 30.12 850 25.1 6.5 43.8 40 -6.1 21.1
01:30 1020 30.12 850 25.1 6.3 43.4 41 -6.1 21
01:35 1020 30.12 849 25.07 6.5 43.6 40 -6.3 20.7
01:40 1020 30.12 849 25.07 6.8 44.3 39 -6.2 20.9
01:45 1020 30.12 850 25.1 6.8 44.3 40 -5.9 21.3
01:50 1020 30.12 850 25.1 6.6 43.9 41 -5.9 21.4
01:55 1020 30.12 850 25.1 6.3 43.3 42 -5.7 21.7
02:00 1020 30.12 850 25.1 6.2 43.1 41 -6.1 21.1
02:05 1020 30.12 850 25.1 6.5 43.6 40 -6.2 20.9
02:10 1020 30.12 850 25.1 6.5 43.7 42 -5.6 22
02:15 1020 30.12 850 25.1 6.1 43 43 -5.5 22
02:20 1020 30.12 850 25.1 5.6 42.1 45 -5.4 22.2
02:25 1020 30.12 850 25.1 5 41 48 -5.2 22.7
02:30 1020 30.12 850 25.1 4.6 40.2 49 -5.2 22.6
02:35 1020 30.12 850 25.1 4.6 40.3 48 -5.4 22.3
02:40 1021 30.15 850 25.1 4.7 40.5 48 -5.4 22.4
02:45 1021 30.15 850 25.1 4.3 39.8 50 -5.1 22.8
02:50 1021 30.15 850 25.1 3.9 39.1 52 -5.1 22.7
02:55 1021 30.15 850 25.1 3.7 38.6 53 -5.1 22.8
03:00 1021 30.15 850 25.1 3.7 38.7 53 -5 23
03:05 1021 30.15 850 25.1 3.7 38.7 52 -5.2 22.6
03:10 1021 30.15 850 25.1 3.7 38.6 52 -5.4 22.4
03:15 1021 30.15 850 25.1 3.9 39 51 -5.3 22.4
03:20 1021 30.15 850 25.1 4.2 39.5 50 -5.4 22.3
03:25 1021 30.15 850 25.1 4.3 39.8 50 -5.2 22.6
03:30 1021 30.15 850 25.1 4.1 39.4 51 -5.1 22.8
03:35 1021 30.15 850 25.1 3.9 39 53 -5 23.1
03:40 1021 30.15 850 25.1 3.5 38.2 54 -4.9 23.1
03:45 1021 30.15 850 25.1 3.2 37.8 55 -5 23.1
03:50 1021 30.15 850 25.1 3 37.5 55 -5.1 22.9
03:55 1021 30.15 850 25.1 3 37.3 56 -5 22.9
04:00 1021 30.15 850 25.1 2.9 37.2 56 -5 23
04:05 1021 30.15 850 25.1 2.8 37.1 56 -5.1 22.8
04:10 1021 30.15 850 25.1 3 37.4 55 -5.1 22.8
04:15 1021 30.15 850 25.1 3.1 37.6 55 -5 23
04:20 1021 30.15 850 25.1 3 37.5 56 -5 23
04:25 1021 30.15 850 25.1 3.2 37.7 55 -5.1 22.9
04:30 1021 30.15 851 25.13 3.1 37.6 54 -5.2 22.6
04:35 1021 30.15 851 25.13 3.3 38 53 -5.3 22.5
04:40 1022 30.18 851 25.13 3.6 38.5 52 -5.4 22.4
04:45 1022 30.18 851 25.13 3.7 38.6 52 -5.3 22.4
04:50 1022 30.18 851 25.13 3.6 38.5 52 -5.3 22.5
04:55 1022 30.18 851 25.13 3.6 38.5 52 -5.3 22.5
05:00 1022 30.18 851 25.13 3.3 38 54 -5.1 22.8
05:05 1022 30.18 851 25.13 3 37.4 54 -5.5 22.2
05:10 1022 30.18 851 25.13 3.4 38.2 52 -5.4 22.2
05:15 1022 30.18 851 25.13 3.6 38.5 52 -5.3 22.5
05:20 1022 30.18 851 25.13 3.1 37.6 54 -5.3 22.5
05:25 1022 30.18 851 25.13 3.3 37.9 53 -5.4 22.2
05:30 1022 30.18 851 25.13 3.2 37.8 53 -5.4 22.3
05:35 1022 30.18 851 25.13 3.3 37.9 53 -5.3 22.5
05:40 1022 30.18 851 25.13 3.1 37.6 53 -5.5 22.1
05:45 1022 30.18 851 25.13 3.2 37.8 53 -5.5 22.2
05:50 1022 30.18 851 25.13 3.2 37.7 53 -5.5 22.1
05:55 1022 30.18 851 25.13 3.2 37.8 53 -5.4 22.3
06:00 1022 30.18 851 25.13 3.3 37.9 53 -5.4 22.2
06:05 1022 30.18 851 25.13 3.5 38.4 52 -5.5 22.1
06:10 1022 30.18 851 25.13 3.9 39 51 -5.4 22.3
06:15 1022 30.18 851 25.13 4.1 39.3 50 -5.5 22.1
06:20 1022 30.18 851 25.13 4.3 39.7 49 -5.4 22.3
06:25 1022 30.18 851 25.13 4.6 40.2 48 -5.4 22.3
06:30 1022 30.18 852 25.16 5.1 41.1 47 -5.5 22.2
06:35 1022 30.18 852 25.16 5.4 41.7 45 -5.6 21.9
06:40 1022 30.18 852 25.16 5.7 42.3 45 -5.3 22.4
06:45 1022 30.18 852 25.16 6.3 43.3 43 -5.5 22.2
06:50 1022 30.18 852 25.16 7 44.6 41 -5.4 22.3
06:55 1023 30.21 852 25.16 7.7 45.8 39 -5.4 22.3
07:00 1023 30.21 852 25.16 8.3 46.9 38 -5.1 22.8
07:05 1023 30.21 852 25.16 8.3 46.9 38 -5.1 22.8
07:10 1023 30.21 852 25.16 8.9 48 37 -5.1 22.8
07:15 1023 30.21 852 25.16 9.2 48.6 36 -4.9 23.2
07:20 1023 30.21 852 25.16 9.2 48.5 36 -5.1 22.9
07:25 1023 30.21 852 25.16 9.2 48.5 36 -5.2 22.6
07:30 1023 30.21 852 25.16 9.2 48.5 34 -5.8 21.6
07:35 1023 30.21 852 25.16 9.2 48.6 35 -5.3 22.5
07:40 1023 30.21 852 25.16 9.2 48.6 35 -5.4 22.2
07:45 1023 30.21 852 25.16 9.5 49.2 35 -5.2 22.7
07:50 1023 30.21 852 25.16 9.8 49.7 34 -5.1 22.8
07:55 1023 30.21 852 25.16 9.8 49.6 34 -5.3 22.4
08:00 1023 30.21 852 25.16 10.6 51 32 -5.5 22.2
08:05 1023 30.21 852 25.16 11 51.7 33 -4.6 23.7
08:10 1023 30.21 852 25.16 10.5 50.8 35 -4.3 24.2
08:15 1023 30.21 852 25.16 10.4 50.7 33 -5.3 22.5
08:20 1023 30.21 852 25.16 11.2 52.2 32 -4.6 23.6
08:25 1023 30.21 852 25.16 11.3 52.4 31 -5 23
08:30 1023 30.21 852 25.16 11.1 51.9 32 -5.1 22.8
08:35 1023 30.21 852 25.16 11.5 52.6 31 -5.1 22.8
08:40 1023 30.21 852 25.16 11.7 53.1 31 -5 23
08:45 1023 30.21 852 25.16 12.4 54.4 29 -5 23
08:50 1023 30.21 852 25.16 12.9 55.2 28 -4.9 23.2
08:55 1023 30.21 852 25.16 13.3 55.9 28 -4.8 23.4
09:00 1023 30.21 852 25.16 13.4 56.2 28 -4.6 23.7
09:05 1023 30.21 852 25.16 13.6 56.4 27 -4.9 23.1
09:10 1023 30.21 852 25.16 14 57.2 27 -4.4 24
09:15 1023 30.21 852 25.16 13.6 56.5 27 -5 23.1
09:20 1023 30.21 852 25.16 13.3 56 28 -4.8 23.4
09:25 1023 30.21 852 25.16 13.7 56.6 27 -5.2 22.7
09:30 1023 30.21 853 25.19 14.1 57.4 25 -5.6 21.9
09:35 1023 30.21 853 25.19 14.1 57.4 25 -5.3 22.4
09:40 1023 30.21 852 25.16 14.1 57.3 26 -4.9 23.1
09:45 1023 30.21 852 25.16 13.5 56.2 27 -5.2 22.6
09:50 1023 30.21 852 25.16 14 57.3 25 -5.7 21.8
09:55 1023 30.21 852 25.16 14.9 58.8 24 -5.4 22.3
10:00 1023 30.21 852 25.16 15.2 59.3 23 -5.6 21.9
10:05 1023 30.21 852 25.16 14.6 58.3 24 -5.6 21.8
10:10 1023 30.21 852 25.16 13.7 56.6 27 -5 23
10:15 1023 30.21 852 25.16 13.4 56.1 26 -5.6 21.9
10:20 1023 30.21 852 25.16 14.5 58 24 -6 21.2
10:25 1023 30.21 852 25.16 14.9 58.9 24 -5.6 21.9
10:30 1023 30.21 852 25.16 15.2 59.4 23 -5.5 22.1
10:35 1023 30.21 852 25.16 15.2 59.4 24 -5.1 22.8
10:40 1023 30.21 852 25.16 15.2 59.4 22 -6.3 20.7
10:45 1023 30.21 852 25.16 14.8 58.6 23 -5.9 21.5
10:50 1023 30.21 852 25.16 14.8 58.7 24 -5.5 22.1
10:55 1023 30.21 852 25.16 14.9 58.9 24 -5.5 22.1
11:00 1023 30.21 852 25.16 14.4 57.9 25 -5.5 22.1
11:05 1023 30.21 852 25.16 14.4 57.9 24 -6.1 21.1
11:10 1023 30.21 852 25.16 15.5 59.9 19 -7.6 18.3
11:15 1023 30.21 852 25.16 16.1 61 19 -7.4 18.6
11:20 1023 30.21 852 25.16 16.4 61.5 19 -7.1 19.3
11:25 1023 30.21 852 25.16 16.1 61 19 -7.3 18.8
11:30 1023 30.21 852 25.16 16.2 61.1 19 -7.6 18.4
11:35 1023 30.21 852 25.16 16.5 61.8 18 -7.5 18.5
11:40 1022 30.18 852 25.16 16.7 62.1 19 -7.1 19.2
11:45 1022 30.18 852 25.16 16.7 62 18 -7.8 18
11:50 1022 30.18 852 25.16 16.8 62.3 18 -7.5 18.6
11:55 1022 30.18 851 25.13 17.1 62.8 17 -8.2 17.2
12:00 1022 30.18 851 25.13 16.3 61.3 17 -8.4 16.8
12:05 1022 30.18 851 25.13 16.2 61.1 17 -8.9 16.1
12:10 1022 30.18 851 25.13 17.1 62.8 17 -8.1 17.3
12:15 1022 30.18 851 25.13 17.3 63.1 17 -7.9 17.8
12:20 1022 30.18 851 25.13 16.9 62.5 18 -7.2 19
12:25 1022 30.18 851 25.13 16.8 62.2 18 -7.5 18.4
12:30 1022 30.18 851 25.13 17.2 63 18 -7.5 18.5
12:35 1022 30.18 851 25.13 17.6 63.6 15 -8.9 15.9
12:40 1022 30.18 851 25.13 18.1 64.6 16 -8.4 16.9
12:45 1022 30.18 851 25.13 17.6 63.7 16 -8.5 16.7
12:50 1022 30.18 851 25.13 17.9 64.2 15 -9.1 15.6
12:55 1022 30.18 851 25.13 17.8 64.1 15 -8.8 16.1
13:00 1022 30.18 851 25.13 18.2 64.7 15 -9.1 15.7
13:05 1021 30.15 851 25.13 17.8 64 15 -9.1 15.6
13:10 1021 30.15 851 25.13 17.5 63.5 16 -8.8 16.1
13:15 1021 30.15 851 25.13 18.3 65 15 -8.7 16.3
13:20 1021 30.15 851 25.13 18.6 65.5 14 -9.3 15.2
13:25 1021 30.15 851 25.13 17.7 63.8 15 -9.4 15.1
13:30 1021 30.15 851 25.13 18.6 65.5 14 -9.5 14.9
13:35 1021 30.15 850 25.1 19.1 66.4 14 -9.3 15.3
13:40 1021 30.15 850 25.1 19.2 66.6 14 -9 15.9
13:45 1021 30.15 850 25.1 19.5 67.1 13 -9.9 14.1
13:50 1021 30.15 850 25.1 19.5 67.1 13 -9.4 15.1
13:55 1021 30.15 850 25.1 19.7 67.5 13 -9.7 14.6
14:00 1021 30.15 850 25.1 20.4 68.6 12 -10.1 13.8
14:05 1021 30.15 850 25.1 20.5 68.9 12 -10 14.1
14:10 1021 30.15 850 25.1 20.3 68.6 12 -10.1 13.9
14:15 1021 30.15 850 25.1 20 68.1 13 -9.5 14.8
14:20 1021 30.15 850 25.1 20.1 68.2 12 -10.3 13.5
14:25 1021 30.15 850 25.1 20.2 68.3 12 -10.4 13.3
14:30 1021 30.15 850 25.1 19.8 67.7 12 -10 14
14:35 1021 30.15 850 25.1 20 67.9 12 -9.9 14.2
14:40 1021 30.15 850 25.1 20.5 68.8 11 -10.7 12.7
14:45 1021 30.15 850 25.1 19.9 67.8 11 -11.5 11.3
14:50 1021 30.15 850 25.1 20 68 11 -11.4 11.5
14:55 1021 30.15 850 25.1 20.2 68.3 11 -11 12.3
15:00 1021 30.15 850 25.1 20.2 68.3 11 -10.8 12.5
15:05 1021 30.15 850 25.1 20.1 68.1 11 -11.2 11.8
15:10 1021 30.15 850 25.1 20.3 68.6 12 -10 14
15:15 1021 30.15 850 25.1 20.7 69.3 12 -9.9 14.2
15:20 1021 30.15 850 25.1 20.4 68.8 12 -9.9 14.2
15:25 1021 30.15 850 25.1 20.3 68.6 11 -10.5 13.1
15:30 1021 30.15 850 25.1 20.2 68.4 12 -10.2 13.6
15:35 1021 30.15 850 25.1 19.9 67.9 12 -10.8 12.6
15:40 1021 30.15 850 25.1 19.9 67.8 12 -10.5 13.2
15:45 1021 30.15 850 25.1 19.9 67.8 12 -10.5 13.2
15:50 1021 30.15 850 25.1 20.2 68.3 12 -9.6 14.7
15:55 1021 30.15 850 25.1 20.2 68.4 12 -10 14
16:00 1021 30.15 850 25.1 20 68 12 -10.3 13.5
16:05 1021 30.15 850 25.1 20.3 68.5 12 -9.8 14.4
16:10 1021 30.15 850 25.1 20.2 68.3 12 -9.8 14.3
16:15 1021 30.15 850 25.1 20.4 68.7 12 -9.8 14.3
16:20 1021 30.15 850 25.1 20.4 68.6 12 -10 14.1
16:25 1021 30.15 850 25.1 20.4 68.7 12 -10 14
16:30 1021 30.15 850 25.1 20.3 68.5 12 -10.3 13.4
16:35 1021 30.15 850 25.1 20.1 68.1 12 -10 14
16:40 1021 30.15 850 25.1 20.3 68.6 12 -9.6 14.7
16:45 1021 30.15 850 25.1 20.4 68.7 12 -9.7 14.6
16:50 1021 30.15 850 25.1 20 68 12 -10.1 13.8
16:55 1021 30.15 850 25.1 20 68 12 -9.7 14.6
17:00 1021 30.15 850 25.1 20.3 68.5 13 -8.9 16
17:05 1021 30.15 850 25.1 20.1 68.2 13 -9.3 15.3
17:10 1020 30.12 850 25.1 20.2 68.3 12 -9.6 14.8
17:15 1020 30.12 850 25.1 20.2 68.3 12 -9.6 14.7
17:20 1020 30.12 850 25.1 20.1 68.1 13 -9.5 14.8
17:25 1020 30.12 850 25.1 19.9 67.7 12 -9.8 14.3
17:30 1020 30.12 850 25.1 20 68 12 -10 14
17:35 1020 30.12 850 25.1 19.8 67.7 13 -9.5 14.9
17:40 1020 30.12 850 25.1 20 67.9 13 -9.5 15
17:45 1020 30.12 850 25.1 19.8 67.7 13 -9.1 15.7
17:50 1020 30.12 850 25.1 19.4 67 13 -9.4 15.1
17:55 1020 30.12 850 25.1 19.4 66.9 13 -9.4 15
18:00 1020 30.12 850 25.1 19.4 67 13 -9.5 14.9
18:05 1020 30.12 849 25.07 19.4 66.9 13 -9.7 14.5
18:10 1020 30.12 849 25.07 19.3 66.7 13 -9.8 14.4
18:15 1020 30.12 849 25.07 19.3 66.7 13 -9.4 15
18:20 1020 30.12 849 25.07 19.1 66.4 13 -9.5 14.8
18:25 1020 30.12 849 25.07 19 66.2 14 -9 15.8
18:30 1020 30.12 849 25.07 19 66.2 14 -9 15.8
18:35 1020 30.12 849 25.07 18.9 66.1 14 -8.8 16.2
18:40 1020 30.12 850 25.1 18.8 65.9 15 -8.7 16.3
18:45 1020 30.12 850 25.1 18.7 65.7 15 -8.8 16.2
18:50 1020 30.12 850 25.1 18.6 65.4 15 -8.7 16.4
18:55 1020 30.12 850 25.1 18.5 65.2 15 -8.7 16.4
19:00 1020 30.12 850 25.1 18.3 65 15 -8.6 16.5
19:05 1021 30.15 850 25.1 18.1 64.6 16 -8.4 16.8
19:10 1021 30.15 850 25.1 17.9 64.1 16 -7.9 17.8
19:15 1021 30.15 850 25.1 17.6 63.7 17 -7.4 18.7
19:20 1021 30.15 850 25.1 17.3 63.2 18 -7.4 18.7
19:25 1021 30.15 850 25.1 17.1 62.8 18 -7.1 19.3
19:30 1021 30.15 850 25.1 16.8 62.2 19 -7 19.3
19:35 1021 30.15 850 25.1 16.5 61.7 19 -6.8 19.7
19:40 1021 30.15 850 25.1 16.1 61 20 -6.7 19.9
19:45 1021 30.15 850 25.1 15.9 60.6 20 -6.6 20
19:50 1021 30.15 850 25.1 15.7 60.2 20 -6.9 19.6
19:55 1021 30.15 850 25.1 15.6 60.2 21 -6.7 20
20:00 1021 30.15 851 25.13 15.2 59.4 22 -6.3 20.7
20:05 1021 30.15 851 25.13 14.2 57.6 24 -5.9 21.3
20:10 1021 30.15 851 25.13 13.4 56.1 24 -6.5 20.2
20:15 1022 30.18 851 25.13 13.1 55.5 25 -6.7 19.9
20:20 1022 30.18 851 25.13 13.3 56 24 -6.7 19.9
20:25 1022 30.18 851 25.13 13.4 56.2 25 -6.2 20.8
20:30 1022 30.18 851 25.13 13.2 55.7 25 -6.6 20.2
20:35 1022 30.18 851 25.13 13.5 56.2 24 -6.5 20.3
20:40 1022 30.18 851 25.13 13.8 56.8 24 -6.3 20.7
20:45 1022 30.18 851 25.13 13.9 57 25 -5.9 21.4
20:50 1022 30.18 851 25.13 13.9 57 25 -5.6 22
20:55 1022 30.18 851 25.13 13.9 57 26 -5.3 22.4
21:00 1022 30.18 851 25.13 13.8 56.8 27 -5 23
21:05 1022 30.18 852 25.16 13.6 56.4 27 -4.9 23.2
21:10 1022 30.18 852 25.16 13.3 55.9 28 -4.6 23.7
21:15 1023 30.21 852 25.16 13 55.4 29 -4.7 23.5
21:20 1023 30.21 852 25.16 12.8 55 29 -4.8 23.4
21:25 1023 30.21 852 25.16 12.6 54.7 29 -4.7 23.5
21:30 1023 30.21 852 25.16 12.3 54.2 30 -4.7 23.6
21:35 1023 30.21 852 25.16 12.1 53.9 30 -4.7 23.5
21:40 1023 30.21 852 25.16 12.1 53.8 30 -4.8 23.4
21:45 1023 30.21 852 25.16 12.1 53.7 30 -4.8 23.3
21:50 1023 30.21 852 25.16 12 53.6 30 -4.8 23.3
21:55 1023 30.21 852 25.16 12 53.5 30 -4.8 23.3
22:00 1023 30.21 852 25.16 11.9 53.4 31 -4.7 23.6
22:05 1023 30.21 852 25.16 11.7 53.1 31 -4.7 23.5
22:10 1023 30.21 852 25.16 11.8 53.2 30 -5.1 22.8
22:15 1023 30.21 852 25.16 11.8 53.2 31 -4.8 23.4
22:20 1023 30.21 852 25.16 11.3 52.3 32 -4.8 23.4
22:25 1023 30.21 852 25.16 11.3 52.4 32 -4.8 23.3
22:30 1023 30.21 852 25.16 11.2 52.2 31 -5.1 22.8
22:35 1023 30.21 852 25.16 11.5 52.6 31 -5 23.1
22:40 1023 30.21 852 25.16 11.6 53 30 -5.1 22.8
22:45 1023 30.21 852 25.16 11.5 52.6 32 -4.5 23.9
22:50 1023 30.21 852 25.16 11.1 51.9 32 -4.8 23.4
22:55 1023 30.21 852 25.16 10.8 51.4 33 -4.7 23.6
23:00 1023 30.21 852 25.16 10.4 50.7 34 -4.7 23.6
23:05 1023 30.21 852 25.16 10 50 36 -4.3 24.3
23:10 1023 30.21 852 25.16 9.4 48.9 39 -3.9 24.9
23:15 1023 30.21 852 25.16 9.1 48.3 39 -4.2 24.5
23:20 1023 30.21 852 25.16 9.1 48.4 38 -4.4 24.1
23:25 1023 30.21 852 25.16 9.5 49.1 37 -4.4 24.2
23:30 1023 30.21 852 25.16 9.7 49.4 37 -4.3 24.3
23:35 1023 30.21 852 25.16 9.5 49 38 -4.1 24.7
23:40 1023 30.21 852 25.16 9.2 48.5 39 -4.1 24.6
23:45 1023 30.21 852 25.16 9 48.3 39 -4.1 24.6
23:50 1023 30.21 852 25.16 8.9 48 40 -4.1 24.7
23:55 1023 30.21 852 25.16 8.9 47.9 39 -4.4 24.1
24:00 1023 30.21 852 25.16 9.5 49.1 38 -4.2 24.4